Time;durP1;ratioP1;P1;durP2;ratioP2;P2;SDS_P1;SDS_P2;PMS_P1;PMS_P2;Temp;Humidity;BMP_temperature;BMP_pressure;BME280_temperature;BME280_humidity;BME280_pressure;Samples;Min_cycle;Max_cycle;Signal;HPM_P1;HPM_P2
2021/12/05 00:22:14;;;;;;;14.50;11.50;;;;;;;2.40;86.04;99413.41;5038047;28;20668;-66
2021/12/05 00:24:44;;;;;;;14.67;10.80;;;;;;;1.74;85.07;99419.63;5020929;28;20391;-66
2021/12/05 00:27:34;;;;;;;13.80;11.37;;;;;;;1.68;86.57;99428.94;5038310;28;20445;-66
2021/12/05 00:33:33;;;;;;;14.30;11.73;;;;;;;2.29;85.29;99426.03;5019278;28;20424;-67
2021/12/05 00:38:39;;;;;;;12.70;11.27;;;;;;;2.60;83.65;99433.50;5025440;28;20435;-69
2021/12/05 00:41:13;;;;;;;12.53;11.20;;;;;;;3.07;84.28;99435.28;5041789;28;20232;-67
2021/12/05 00:59:56;;;;;;;11.40;10.20;;;;;;;2.01;86.20;99458.81;5041837;28;20424;-66
2021/12/05 01:02:36;;;;;;;11.70;10.07;;;;;;;1.73;85.36;99464.13;5028478;28;20424;-66
2021/12/05 01:15:43;;;;;;;13.60;11.67;;;;;;;2.66;83.76;99470.53;5062580;28;20474;-68
2021/12/05 01:18:14;;;;;;;16.80;11.70;;;;;;;2.44;84.84;99470.94;5049914;28;20433;-66
2021/12/05 01:20:44;;;;;;;13.50;11.37;;;;;;;2.75;83.84;99466.41;5011258;28;20421;-71
2021/12/05 01:26:37;;;;;;;13.00;11.40;;;;;;;2.90;83.27;99474.47;5047245;28;20436;-68
2021/12/05 01:36:55;;;;;;;11.13;9.90;;;;;;;2.19;85.89;99486.66;5040743;28;20468;-66
2021/12/05 01:47:33;;;;;;;13.70;12.10;;;;;;;3.07;81.72;99490.22;5042892;28;20189;-67
2021/12/05 01:55:20;;;;;;;13.27;11.10;;;;;;;2.45;85.19;99493.22;5060009;28;20506;-68
2021/12/05 01:58:09;;;;;;;12.50;10.87;;;;;;;2.12;85.83;99507.91;5051316;28;20182;-66
2021/12/05 02:09:10;;;;;;;15.30;12.73;;;;;;;2.57;85.93;99498.66;5057391;28;20875;-66
2021/12/05 02:32:56;;;;;;;16.63;13.20;;;;;;;2.02;85.81;99526.53;5059163;28;20420;-66
2021/12/05 02:35:38;;;;;;;16.53;13.50;;;;;;;2.45;85.94;99524.97;5059170;28;20452;-66
2021/12/05 02:38:38;;;;;;;17.63;15.23;;;;;;;2.51;85.08;99529.38;5058910;28;20422;-66
2021/12/05 02:43:31;;;;;;;19.07;15.63;;;;;;;2.88;84.32;99535.31;5059020;28;20464;-66
2021/12/05 02:46:00;;;;;;;17.23;13.70;;;;;;;1.84;85.45;99537.19;5055685;28;20269;-66
2021/12/05 02:48:29;;;;;;;19.60;14.70;;;;;;;2.82;85.44;99532.63;5039139;28;20507;-66
2021/12/05 02:50:55;;;;;;;18.00;14.80;;;;;;;2.39;84.76;99535.13;5039034;28;20417;-66
2021/12/05 02:53:31;;;;;;;18.33;15.30;;;;;;;2.36;85.74;99541.06;5038688;28;20468;-66
2021/12/05 02:55:57;;;;;;;16.77;13.47;;;;;;;2.16;86.54;99535.44;5035685;28;20472;-66
2021/12/05 02:58:33;;;;;;;20.80;15.23;;;;;;;2.57;84.76;99533.78;5019221;28;20414;-66
2021/12/05 03:03:30;;;;;;;19.67;14.97;;;;;;;2.17;87.14;99538.88;5019973;28;20454;-66
2021/12/05 03:06:03;;;;;;;20.10;15.40;;;;;;;1.75;87.52;99535.28;5019692;28;20402;-66
2021/12/05 03:08:28;;;;;;;21.87;16.40;;;;;;;2.29;86.75;99539.19;5022057;28;20489;-68
2021/12/05 03:10:55;;;;;;;21.23;16.50;;;;;;;2.16;87.25;99534.56;5022036;28;20457;-68
2021/12/05 03:13:22;;;;;;;22.80;16.83;;;;;;;2.31;87.36;99532.38;5022103;28;20616;-66
2021/12/05 03:15:48;;;;;;;22.03;16.00;;;;;;;2.76;85.78;99527.34;5019830;28;20469;-66
2021/12/05 03:18:13;;;;;;;21.80;15.90;;;;;;;1.87;88.49;99527.03;5019101;28;20418;-66
2021/12/05 03:20:39;;;;;;;22.57;17.40;;;;;;;2.43;87.70;99530.91;5019280;28;20464;-66
2021/12/05 03:23:05;;;;;;;22.63;16.57;;;;;;;2.20;86.61;99538.94;5020132;28;20221;-66
2021/12/05 03:25:30;;;;;;;28.43;18.20;;;;;;;2.70;85.87;99531.50;5021269;28;20162;-66
2021/12/05 03:27:56;;;;;;;26.00;18.20;;;;;;;2.59;85.79;99539.84;5038850;28;20521;-66
2021/12/05 03:30:24;;;;;;;25.23;18.33;;;;;;;2.86;84.42;99526.72;5021268;28;20416;-67
2021/12/05 03:32:51;;;;;;;29.10;17.07;;;;;;;1.98;88.21;99546.13;5038194;28;20193;-67
2021/12/05 03:35:18;;;;;;;23.43;15.37;;;;;;;1.94;88.86;99546.03;5019260;28;20577;-67
2021/12/05 03:37:46;;;;;;;21.40;13.27;;;;;;;1.80;87.44;99553.38;5001431;28;20417;-66
2021/12/05 03:40:12;;;;;;;25.70;17.27;;;;;;;1.91;88.94;99551.97;5018628;28;20414;-66
2021/12/05 03:42:37;;;;;;;24.23;16.00;;;;;;;2.41;87.32;99545.44;5018702;28;20700;-66
2021/12/05 03:45:09;;;;;;;23.93;16.93;;;;;;;2.11;87.61;99560.19;5035339;28;20436;-67
2021/12/05 03:47:34;;;;;;;25.90;17.33;;;;;;;2.01;87.38;99559.06;5037918;28;20174;-66
2021/12/05 03:50:00;;;;;;;29.80;18.40;;;;;;;2.25;87.56;99565.66;5038727;28;20669;-66
2021/12/05 03:52:25;;;;;;;28.73;17.90;;;;;;;2.62;87.31;99563.94;5037952;28;20178;-67
2021/12/05 03:54:51;;;;;;;26.90;16.40;;;;;;;1.37;89.85;99565.97;5022320;28;20234;-66
2021/12/05 03:57:16;;;;;;;25.87;16.70;;;;;;;1.85;90.94;99562.97;5018853;28;20198;-66
2021/12/05 03:59:44;;;;;;;26.83;16.63;;;;;;;2.13;88.37;99567.94;5018545;28;20187;-66
2021/12/05 04:02:10;;;;;;;28.47;17.43;;;;;;;2.87;86.97;99567.06;5018420;28;20559;-68
2021/12/05 04:04:37;;;;;;;29.80;17.67;;;;;;;2.06;86.69;99576.28;5018529;28;20426;-66
2021/12/05 04:07:04;;;;;;;28.07;17.57;;;;;;;2.21;87.47;99575.84;5018248;28;20237;-68
2021/12/05 04:09:30;;;;;;;29.17;16.90;;;;;;;1.82;88.14;99572.28;5019029;28;20425;-67
2021/12/05 04:11:58;;;;;;;33.43;17.40;;;;;;;2.59;86.46;99581.03;5021524;28;20861;-66
2021/12/05 04:14:26;;;;;;;31.90;18.20;;;;;;;2.05;88.08;99582.28;5035360;28;20448;-68
2021/12/05 04:16:52;;;;;;;30.93;19.13;;;;;;;2.55;87.86;99572.34;5043692;28;20496;-67
2021/12/05 04:19:18;;;;;;;26.73;18.30;;;;;;;2.66;85.23;99576.03;5042521;28;20678;-66
2021/12/05 04:21:43;;;;;;;30.23;17.53;;;;;;;2.50;86.62;99589.38;5041672;28;20425;-66
2021/12/05 04:24:10;;;;;;;32.10;18.93;;;;;;;2.94;84.63;99592.09;5032086;28;20229;-66
2021/12/05 04:26:36;;;;;;;26.50;17.40;;;;;;;3.04;85.32;99593.16;5022894;28;20179;-67
2021/12/05 04:29:03;;;;;;;26.97;17.60;;;;;;;2.89;84.46;99608.28;5022861;28;20451;-67
2021/12/05 04:31:28;;;;;;;28.77;17.90;;;;;;;2.84;86.20;99605.59;5023509;28;20202;-67
2021/12/05 04:33:54;;;;;;;28.10;18.50;;;;;;;2.64;85.51;99616.31;5025100;28;20870;-67
2021/12/05 04:36:20;;;;;;;27.17;17.60;;;;;;;2.89;84.94;99614.28;5026300;28;20580;-67
2021/12/05 04:38:46;;;;;;;28.83;17.50;;;;;;;2.51;86.94;99619.44;5024966;28;20540;-67
2021/12/05 04:41:11;;;;;;;31.23;16.90;;;;;;;2.18;86.80;99623.78;5023418;28;20410;-66
2021/12/05 04:43:38;;;;;;;34.63;16.77;;;;;;;2.25;86.59;99632.50;5025391;28;20234;-67
2021/12/05 04:46:09;;;;;;;30.97;17.83;;;;;;;2.44;87.15;99630.41;5021619;28;20561;-67
2021/12/05 04:48:35;;;;;;;28.07;17.43;;;;;;;2.06;87.93;99632.84;5022071;28;20492;-66
2021/12/05 04:51:02;;;;;;;31.03;14.60;;;;;;;1.99;88.17;99632.72;5021542;28;20451;-66
2021/12/05 04:53:28;;;;;;;33.63;18.47;;;;;;;2.82;86.67;99639.03;5024262;28;20252;-67
2021/12/05 04:55:56;;;;;;;32.67;17.57;;;;;;;3.20;83.72;99631.28;5041319;28;20454;-67
2021/12/05 04:58:22;;;;;;;28.37;19.03;;;;;;;2.65;84.85;99643.78;5041292;28;20420;-66
2021/12/05 05:00:47;;;;;;;27.53;18.10;;;;;;;2.77;86.16;99644.91;5041070;28;20460;-67
2021/12/05 05:03:14;;;;;;;29.27;16.77;;;;;;;1.91;87.89;99648.75;5040202;28;20743;-67
2021/12/05 05:05:46;;;;;;;31.60;16.20;;;;;;;2.28;87.24;99654.88;5021207;28;20179;-66
2021/12/05 05:08:11;;;;;;;38.80;18.10;;;;;;;1.87;89.06;99655.53;5021005;28;20691;-66
2021/12/05 05:10:37;;;;;;;25.93;16.10;;;;;;;2.07;88.15;99662.88;5021616;28;20417;-66
2021/12/05 05:13:02;;;;;;;39.00;18.50;;;;;;;1.82;89.25;99659.66;5020933;28;20434;-65
2021/12/05 05:15:30;;;;;;;32.40;19.53;;;;;;;2.83;86.85;99660.50;5038654;28;20214;-67
2021/12/05 05:17:57;;;;;;;31.90;17.20;;;;;;;1.90;89.80;99663.31;5041572;28;20167;-66
2021/12/05 05:20:32;;;;;;;31.50;17.70;;;;;;;1.93;89.74;99667.66;5023408;28;20425;-66
2021/12/05 05:23:16;;;;;;;28.30;16.43;;;;;;;1.70;88.98;99677.31;5040141;28;20441;-66
2021/12/05 05:50:01;;;;;;;27.90;16.13;;;;;;;1.90;87.97;99713.84;5043130;28;20695;-67
2021/12/05 05:52:28;;;;;;;32.37;18.93;;;;;;;2.22;88.57;99712.16;5045518;28;20420;-67
2021/12/05 05:54:56;;;;;;;30.47;18.07;;;;;;;2.31;87.53;99735.56;5028560;28;20736;-67
2021/12/05 05:57:37;;;;;;;31.67;18.87;;;;;;;2.28;87.04;99730.31;5030538;28;20432;-67
2021/12/05 06:00:17;;;;;;;30.87;17.97;;;;;;;2.32;87.08;99728.69;5025543;28;20421;-65
2021/12/05 06:05:36;;;;;;;30.37;18.10;;;;;;;2.34;87.32;99727.91;5016961;28;20421;-67
2021/12/05 06:08:01;;;;;;;23.97;16.00;;;;;;;1.98;88.08;99738.94;5039294;28;20531;-66
2021/12/05 06:10:29;;;;;;;30.60;19.33;;;;;;;2.42;86.23;99733.28;5039903;28;20567;-67
2021/12/05 06:12:54;;;;;;;29.03;18.67;;;;;;;2.67;86.30;99732.19;5039567;28;20174;-65
2021/12/05 06:15:21;;;;;;;22.87;16.33;;;;;;;2.65;84.69;99731.28;5040050;28;20884;-66
2021/12/05 06:17:47;;;;;;;26.63;17.57;;;;;;;2.48;85.34;99733.41;5028273;28;20198;-66
2021/12/05 06:20:16;;;;;;;25.43;17.70;;;;;;;2.82;83.38;99738.56;5019781;28;20497;-67
2021/12/05 06:22:42;;;;;;;26.83;16.93;;;;;;;3.01;83.74;99732.13;5019917;28;20432;-66
2021/12/05 06:25:12;;;;;;;25.23;17.87;;;;;;;2.88;84.01;99730.97;5019729;28;20796;-66
2021/12/05 06:27:37;;;;;;;21.63;16.13;;;;;;;2.91;85.19;99737.88;5012152;28;20420;-66
2021/12/05 06:30:14;;;;;;;24.53;17.53;;;;;;;3.22;82.91;99742.09;5031902;28;20433;-66
2021/12/05 06:38:06;;;;;;;21.00;15.13;;;;;;;2.15;87.74;99753.94;5022845;28;20193;-66
2021/12/05 06:46:17;;;;;;;25.63;15.70;;;;;;;2.16;87.45;99771.97;5038882;28;20433;-66
2021/12/05 06:48:44;;;;;;;23.63;15.53;;;;;;;2.23;85.28;99780.72;5039021;28;20425;-65
2021/12/05 06:51:11;;;;;;;20.33;14.47;;;;;;;2.69;85.53;99776.84;5038841;28;20425;-66
2021/12/05 06:53:37;;;;;;;20.00;14.07;;;;;;;1.89;86.57;99784.94;5043585;28;20459;-66
2021/12/05 06:56:03;;;;;;;20.17;14.60;;;;;;;1.95;86.89;99790.25;5058759;28;20463;-65
2021/12/05 06:58:28;;;;;;;20.60;15.10;;;;;;;2.12;87.66;99789.88;5059157;28;20275;-65
2021/12/05 07:00:54;;;;;;;20.50;15.10;;;;;;;2.21;87.58;99796.97;5054402;28;20479;-65
2021/12/05 07:03:19;;;;;;;18.17;13.07;;;;;;;2.06;85.11;99800.84;5049345;28;20483;-66
2021/12/05 07:08:25;;;;;;;18.97;14.47;;;;;;;2.25;85.14;99820.25;5058669;28;20181;-66
2021/12/05 07:14:13;;;;;;;23.27;15.00;;;;;;;2.43;85.60;99819.00;5058602;28;20475;-66
2021/12/05 07:22:34;;;;;;;20.10;16.30;;;;;;;2.56;85.03;99836.53;5058287;28;20514;-66
2021/12/05 07:25:11;;;;;;;19.57;15.30;;;;;;;2.48;84.91;99838.88;5043455;28;20466;-65
2021/12/05 07:41:19;;;;;;;17.47;14.00;;;;;;;2.23;86.40;99862.16;5058375;28;20458;-68
2021/12/05 07:43:45;;;;;;;18.37;14.33;;;;;;;2.75;84.38;99862.75;5057749;28;20758;-67
2021/12/05 07:46:10;;;;;;;16.93;13.40;;;;;;;2.63;82.59;99871.03;5057584;28;20427;-67
2021/12/05 07:48:39;;;;;;;17.63;13.10;;;;;;;2.51;84.28;99869.84;5058146;28;20188;-67
2021/12/05 07:51:25;;;;;;;16.60;12.93;;;;;;;1.79;86.84;99868.59;5058557;28;20205;-67
2021/12/05 07:54:29;;;;;;;16.97;13.73;;;;;;;2.26;86.00;99883.72;5058003;28;20795;-67
2021/12/05 07:57:17;;;;;;;18.50;13.73;;;;;;;2.58;83.22;99886.31;5057995;28;20463;-66
2021/12/05 08:16:13;;;;;;;18.10;14.40;;;;;;;1.94;87.27;99926.44;5057928;28;20601;-67
2021/12/05 08:18:39;;;;;;;18.37;14.43;;;;;;;1.94;87.71;99927.31;5057789;28;20415;-66
2021/12/05 08:21:06;;;;;;;16.73;13.40;;;;;;;2.12;85.49;99929.56;5058162;28;20412;-67
2021/12/05 08:23:32;;;;;;;19.53;14.60;;;;;;;2.18;86.38;99931.47;5060297;28;20158;-66
2021/12/05 08:26:06;;;;;;;17.80;14.40;;;;;;;2.06;85.82;99931.97;5053987;28;20874;-69
2021/12/05 08:28:59;;;;;;;16.63;13.50;;;;;;;2.21;84.74;99947.00;5050278;28;20681;-67
2021/12/05 08:34:30;;;;;;;19.63;15.60;;;;;;;2.07;86.63;99956.84;5078563;28;20428;-68
2021/12/05 08:45:33;;;;;;;18.27;15.10;;;;;;;2.26;86.73;99975.41;5053319;28;20428;-68
2021/12/05 09:26:38;;;;;;;17.40;13.93;;;;;;;2.35;85.32;100033.16;5060405;28;20415;-69
2021/12/05 10:01:54;;;;;;;15.03;11.70;;;;;;;2.02;83.62;100089.50;5029058;28;20413;-68
2021/12/05 10:14:50;;;;;;;17.00;13.77;;;;;;;2.69;82.36;100100.22;5039598;28;20447;-68
2021/12/05 10:20:30;;;;;;;16.37;13.97;;;;;;;2.79;82.32;100103.97;5039708;28;20619;-69
2021/12/05 10:37:14;;;;;;;14.93;12.40;;;;;;;1.78;86.06;100128.09;5036987;28;20559;-66
2021/12/05 10:39:41;;;;;;;16.90;12.43;;;;;;;1.71;85.99;100127.00;5044642;28;20424;-68
2021/12/05 10:42:43;;;;;;;14.47;12.60;;;;;;;2.16;85.05;100115.69;5043008;28;20654;-70
2021/12/05 10:45:26;;;;;;;14.80;12.13;;;;;;;1.95;84.34;100128.66;5039799;28;20428;-69
2021/12/05 10:47:53;;;;;;;15.63;13.50;;;;;;;1.98;84.34;100129.66;5040800;28;20439;-66
2021/12/05 10:50:34;;;;;;;15.83;13.13;;;;;;;1.97;84.69;100130.47;5039175;28;20508;-65
2021/12/05 10:53:18;;;;;;;16.57;13.70;;;;;;;1.70;85.93;100143.22;5038627;28;20417;-67
2021/12/05 10:55:44;;;;;;;17.13;14.00;;;;;;;2.26;84.89;100138.31;5038710;28;20542;-69
2021/12/05 10:58:09;;;;;;;17.90;14.13;;;;;;;2.14;85.20;100145.63;5038866;28;20456;-67
2021/12/05 11:00:35;;;;;;;19.00;15.10;;;;;;;1.79;85.56;100142.69;5041509;28;20432;-69
2021/12/05 11:03:14;;;;;;;20.47;16.33;;;;;;;2.64;82.40;100143.84;5040078;28;20578;-68
2021/12/05 11:05:41;;;;;;;19.07;14.63;;;;;;;2.04;84.33;100153.84;5021867;28;20484;-68
2021/12/05 11:08:29;;;;;;;19.27;15.57;;;;;;;2.09;84.82;100153.16;5038908;28;20778;-67
2021/12/05 11:11:06;;;;;;;18.07;14.43;;;;;;;2.32;83.81;100159.09;5038577;28;20433;-68
2021/12/05 11:13:31;;;;;;;16.97;13.97;;;;;;;1.68;85.85;100171.44;5038438;28;20455;-68
2021/12/05 11:15:57;;;;;;;17.47;14.70;;;;;;;2.21;84.79;100172.44;5038541;28;20500;-68
2021/12/05 11:18:42;;;;;;;18.60;15.60;;;;;;;2.39;84.29;100173.03;5038522;28;20174;-68
2021/12/05 11:21:24;;;;;;;20.80;13.97;;;;;;;2.26;84.29;100173.44;5037317;28;20197;-67
2021/12/05 11:24:21;;;;;;;20.10;14.90;;;;;;;2.35;84.32;100174.66;5038552;28;20428;-70
2021/12/05 11:27:03;;;;;;;20.67;15.53;;;;;;;2.44;83.53;100174.06;5038143;28;20421;-67
2021/12/05 11:30:03;;;;;;;20.77;15.83;;;;;;;2.64;84.61;100169.56;5039693;28;20416;-67
2021/12/05 11:32:38;;;;;;;19.37;14.83;;;;;;;2.37;84.20;100184.97;5018307;28;20455;-66
2021/12/05 11:35:33;;;;;;;21.43;17.43;;;;;;;2.64;84.17;100176.44;5018657;28;20417;-70
2021/12/05 11:38:04;;;;;;;24.30;17.43;;;;;;;2.48;84.95;100183.63;5018538;28;20608;-68
2021/12/05 11:40:46;;;;;;;20.97;16.70;;;;;;;2.95;83.40;100182.53;5018429;28;20469;-68
2021/12/05 11:43:29;;;;;;;22.70;17.53;;;;;;;2.28;85.95;100190.66;5018341;28;20418;-67
2021/12/05 11:45:56;;;;;;;19.23;16.40;;;;;;;2.36;85.61;100188.38;5018164;28;20421;-67
2021/12/05 11:48:24;;;;;;;22.70;18.60;;;;;;;2.39;85.55;100187.59;5018107;28;20417;-67
2021/12/05 11:50:50;;;;;;;23.53;16.83;;;;;;;2.97;84.11;100192.06;5018199;28;20433;-67
2021/12/05 11:53:33;;;;;;;20.17;16.57;;;;;;;3.29;81.32;100186.16;5018359;28;20414;-67
2021/12/05 11:55:58;;;;;;;20.70;16.50;;;;;;;2.55;85.44;100197.56;5018037;28;20520;-68
2021/12/05 11:58:24;;;;;;;20.50;17.37;;;;;;;2.94;85.52;100189.41;5018300;28;20517;-67
2021/12/05 12:00:49;;;;;;;19.67;16.70;;;;;;;2.50;85.27;100197.44;5018369;28;20171;-67
2021/12/05 12:03:14;;;;;;;21.53;16.30;;;;;;;2.73;85.22;100193.84;5018112;28;20262;-68
2021/12/05 12:05:40;;;;;;;21.47;17.30;;;;;;;2.09;86.11;100204.59;5001562;28;20179;-68
2021/12/05 12:08:09;;;;;;;21.37;17.47;;;;;;;2.74;84.74;100191.34;5019068;28;20171;-67
2021/12/05 12:10:46;;;;;;;21.13;17.27;;;;;;;3.01;84.87;100203.34;5018725;28;20167;-67
2021/12/05 12:13:18;;;;;;;24.40;17.70;;;;;;;2.63;85.13;100205.56;5018174;28;20414;-67
2021/12/05 12:15:47;;;;;;;21.07;17.50;;;;;;;2.55;84.23;100213.00;5018426;28;20466;-67
2021/12/05 12:18:23;;;;;;;22.93;18.70;;;;;;;2.61;85.65;100209.75;5001378;28;20413;-68
2021/12/05 12:20:49;;;;;;;21.97;17.33;;;;;;;2.49;86.24;100211.13;5018383;28;20427;-68
2021/12/05 12:23:16;;;;;;;19.30;16.20;;;;;;;2.79;85.61;100199.22;5017922;28;20791;-68
2021/12/05 12:25:42;;;;;;;21.97;17.47;;;;;;;2.47;85.38;100205.03;5018277;28;20186;-68
2021/12/05 12:28:08;;;;;;;22.10;17.40;;;;;;;2.80;84.00;100200.94;5001340;28;20874;-67
2021/12/05 12:30:37;;;;;;;21.20;16.23;;;;;;;2.40;85.45;100203.09;5018126;28;20418;-67
2021/12/05 12:33:10;;;;;;;22.87;17.70;;;;;;;2.61;85.27;100209.75;5019052;28;20429;-68
2021/12/05 12:35:36;;;;;;;21.43;17.00;;;;;;;2.73;83.79;100207.59;5022394;28;20481;-68
2021/12/05 12:38:16;;;;;;;18.70;14.90;;;;;;;2.18;84.57;100215.19;5022560;28;20681;-69
2021/12/05 12:40:51;;;;;;;22.40;18.23;;;;;;;2.31;84.77;100213.94;5027300;28;20447;-67
2021/12/05 12:43:51;;;;;;;22.37;17.80;;;;;;;3.31;83.37;100200.81;5018612;28;20687;-69
2021/12/05 12:46:52;;;;;;;22.63;18.17;;;;;;;2.60;82.21;100221.78;5041577;28;20492;-69
2021/12/05 12:49:18;;;;;;;23.60;17.37;;;;;;;1.93;86.33;100228.88;5027603;28;20432;-70
2021/12/05 12:52:12;;;;;;;23.90;18.47;;;;;;;1.96;87.56;100222.97;5040982;28;20799;-67
2021/12/05 12:54:50;;;;;;;26.53;20.23;;;;;;;2.03;86.38;100232.66;5039273;28;20507;-68
2021/12/05 12:57:18;;;;;;;27.03;17.43;;;;;;;1.70;88.64;100235.75;5040748;28;20468;-68
2021/12/05 13:00:07;;;;;;;30.40;19.27;;;;;;;2.08;86.75;100248.25;5036901;28;20443;-69
2021/12/05 13:02:58;;;;;;;25.60;17.60;;;;;;;1.88;86.93;100256.13;5020969;28;20487;-68
2021/12/05 13:11:01;;;;;;;30.50;21.47;;;;;;;2.29;86.50;100258.44;5007922;28;20460;-67
2021/12/05 13:13:28;;;;;;;25.80;19.33;;;;;;;2.17;85.78;100259.72;5020935;28;20418;-67
2021/12/05 13:15:59;;;;;;;27.73;20.80;;;;;;;2.84;84.24;100259.44;5021781;28;20458;-69
2021/12/05 13:18:32;;;;;;;27.80;20.13;;;;;;;2.21;85.72;100263.31;5022295;28;20428;-68
2021/12/05 13:21:10;;;;;;;26.10;20.60;;;;;;;2.28;86.07;100265.25;5023668;28;20433;-68
2021/12/05 13:23:40;;;;;;;31.10;21.00;;;;;;;2.31;85.52;100261.94;5031601;28;20425;-68
2021/12/05 13:26:20;;;;;;;30.23;22.63;;;;;;;3.12;83.61;100262.91;5035986;28;20448;-68
2021/12/05 13:29:23;;;;;;;26.77;20.83;;;;;;;2.73;84.62;100263.34;5040415;28;20670;-67
2021/12/05 13:31:50;;;;;;;29.70;21.67;;;;;;;2.65;83.94;100269.13;5023139;28;20452;-68
2021/12/05 13:34:44;;;;;;;28.03;19.77;;;;;;;2.05;85.18;100284.16;5040623;28;20441;-68
2021/12/05 13:37:09;;;;;;;31.40;24.17;;;;;;;2.68;84.46;100276.94;5040616;28;20460;-67
2021/12/05 13:39:47;;;;;;;31.00;22.80;;;;;;;2.58;83.95;100279.16;5039736;28;20452;-68
2021/12/05 13:42:26;;;;;;;31.30;22.37;;;;;;;2.62;84.67;100281.00;5041957;28;20201;-68
2021/12/05 13:45:06;;;;;;;29.60;21.53;;;;;;;2.25;84.72;100287.44;5046008;28;20475;-68
2021/12/05 13:47:38;;;;;;;31.43;23.20;;;;;;;2.25;85.75;100290.88;5041503;28;20722;-69
2021/12/05 13:50:18;;;;;;;30.97;22.07;;;;;;;2.14;86.62;100307.63;5040803;28;20829;-67
2021/12/05 13:52:52;;;;;;;32.50;24.10;;;;;;;2.87;82.82;100285.31;5040412;28;20682;-67
2021/12/05 13:55:40;;;;;;;38.73;23.83;;;;;;;2.30;85.62;100296.19;5056445;28;20467;-68
2021/12/05 13:58:32;;;;;;;31.43;21.33;;;;;;;2.11;87.09;100300.69;5059413;28;20439;-67
2021/12/05 14:01:11;;;;;;;30.20;22.97;;;;;;;2.34;85.98;100306.66;5054805;28;20542;-69
2021/12/05 14:03:41;;;;;;;29.70;21.87;;;;;;;2.32;87.11;100305.69;5041934;28;20431;-67
2021/12/05 14:06:31;;;;;;;40.10;28.67;;;;;;;2.26;86.97;100315.78;5060019;28;20687;-68
2021/12/05 14:09:04;;;;;;;29.97;20.97;;;;;;;2.50;86.20;100320.94;5043390;28;20422;-68
2021/12/05 14:11:31;;;;;;;34.80;25.20;;;;;;;2.65;84.90;100328.31;5042984;28;20420;-68
2021/12/05 14:13:57;;;;;;;29.30;21.10;;;;;;;2.69;84.74;100337.00;5025579;28;20428;-68
2021/12/05 14:16:30;;;;;;;26.23;19.60;;;;;;;2.92;82.75;100335.22;5026040;28;20704;-68
2021/12/05 14:18:55;;;;;;;27.43;20.00;;;;;;;2.03;85.92;100343.22;5059712;28;20408;-67
2021/12/05 14:21:23;;;;;;;26.00;19.63;;;;;;;2.19;86.76;100344.66;5059700;28;20519;-68
2021/12/05 14:23:49;;;;;;;27.97;20.00;;;;;;;1.58;88.39;100351.75;5054434;28;20238;-68
2021/12/05 14:26:22;;;;;;;29.60;21.30;;;;;;;2.04;86.34;100362.09;5060114;28;20510;-68
2021/12/05 14:29:12;;;;;;;26.90;20.90;;;;;;;2.26;86.32;100361.19;5059140;28;20455;-67
2021/12/05 14:31:42;;;;;;;23.37;18.27;;;;;;;2.09;86.15;100363.16;5045004;28;20436;-68
2021/12/05 14:34:09;;;;;;;29.60;20.93;;;;;;;2.39;84.54;100365.09;5042206;28;20513;-68
2021/12/05 14:36:48;;;;;;;32.40;20.70;;;;;;;2.50;84.89;100369.81;5041758;28;20461;-66
2021/12/05 14:39:32;;;;;;;22.87;19.30;;;;;;;2.50;84.02;100376.66;5059088;28;20416;-68
2021/12/05 14:42:01;;;;;;;26.23;19.47;;;;;;;2.19;86.08;100391.84;5024609;28;20424;-68
2021/12/05 14:44:27;;;;;;;24.27;18.30;;;;;;;1.66;87.90;100388.94;5059261;28;20434;-67
2021/12/05 14:47:04;;;;;;;27.33;21.00;;;;;;;1.99;86.90;100395.34;5058971;28;20649;-67
2021/12/05 14:49:34;;;;;;;24.00;17.80;;;;;;;1.66;87.92;100401.78;5041607;28;20434;-68
2021/12/05 14:52:01;;;;;;;27.17;19.20;;;;;;;2.08;86.68;100410.25;5058874;28;20436;-69
2021/12/05 14:54:33;;;;;;;33.03;22.80;;;;;;;2.77;83.09;100409.34;5058590;28;20509;-67
2021/12/05 14:57:03;;;;;;;26.73;19.80;;;;;;;2.35;84.62;100410.41;5058122;28;20471;-67
2021/12/05 14:59:29;;;;;;;26.47;20.13;;;;;;;2.57;83.91;100413.78;5058008;28;20426;-67
2021/12/05 15:01:57;;;;;;;27.90;19.83;;;;;;;2.41;84.13;100415.78;5056978;28;20439;-68
2021/12/05 15:04:26;;;;;;;24.40;19.10;;;;;;;1.61;87.32;100426.41;5059115;28;20190;-68
2021/12/05 15:06:52;;;;;;;27.37;19.93;;;;;;;2.02;85.81;100419.47;5068257;28;20845;-68
2021/12/05 15:09:27;;;;;;;25.97;20.93;;;;;;;2.27;85.29;100422.97;5060324;28;20434;-68
2021/12/05 15:11:59;;;;;;;28.30;20.27;;;;;;;2.24;84.28;100425.44;5064894;28;20214;-68
2021/12/05 15:14:25;;;;;;;29.03;19.37;;;;;;;2.09;84.02;100427.44;5060112;28;20439;-68
2021/12/05 15:16:59;;;;;;;24.20;18.40;;;;;;;1.66;87.22;100434.28;5061887;28;20782;-68
2021/12/05 15:19:26;;;;;;;26.07;18.57;;;;;;;1.56;86.86;100442.47;5069256;28;20503;-68
2021/12/05 15:21:52;;;;;;;27.10;18.40;;;;;;;1.51;86.75;100447.41;5069638;28;20436;-68
2021/12/05 15:24:19;;;;;;;24.87;18.80;;;;;;;2.02;86.39;100447.75;5058462;28;20601;-67
2021/12/05 15:26:45;;;;;;;26.73;20.13;;;;;;;1.81;85.27;100449.47;5057137;28;20197;-67
2021/12/05 15:29:10;;;;;;;29.63;19.57;;;;;;;1.49;87.08;100454.19;5058590;28;20839;-68
2021/12/05 15:31:39;;;;;;;23.23;18.10;;;;;;;1.73;86.43;100466.25;5057820;28;20177;-67
2021/12/05 15:34:24;;;;;;;25.50;19.70;;;;;;;1.80;84.99;100464.03;5059187;28;20184;-66
2021/12/05 15:36:51;;;;;;;22.80;18.20;;;;;;;1.44;87.29;100460.81;5058432;28;20471;-67
2021/12/05 15:39:21;;;;;;;24.50;19.50;;;;;;;1.89;84.82;100463.50;5058383;28;20415;-67
2021/12/05 15:41:48;;;;;;;27.27;18.73;;;;;;;1.49;87.18;100467.03;5053727;28;20849;-67
2021/12/05 15:44:39;;;;;;;25.13;19.70;;;;;;;1.78;86.45;100481.06;5038756;28;20688;-65
2021/12/05 15:47:29;;;;;;;29.43;21.50;;;;;;;1.82;87.83;100484.63;5037469;28;20417;-68
2021/12/05 15:50:06;;;;;;;26.33;19.23;;;;;;;1.66;87.38;100485.69;5032505;28;20441;-68
2021/12/05 15:52:36;;;;;;;26.47;19.53;;;;;;;1.48;87.54;100502.09;5038069;28;20420;-67
2021/12/05 15:55:24;;;;;;;25.73;19.63;;;;;;;1.90;86.48;100501.25;5056787;28;20763;-69
2021/12/05 15:57:54;;;;;;;27.83;21.00;;;;;;;2.30;85.12;100492.56;5057494;28;20424;-67
2021/12/05 16:00:24;;;;;;;27.93;19.70;;;;;;;1.64;86.47;100495.03;5055469;28;20438;-68
2021/12/05 16:03:02;;;;;;;23.10;18.10;;;;;;;1.43;87.19;100507.84;5040571;28;20723;-69
2021/12/05 16:05:28;;;;;;;28.60;21.40;;;;;;;1.95;85.16;100504.00;5039212;28;20760;-67
2021/12/05 16:08:05;;;;;;;27.30;19.70;;;;;;;2.21;86.32;100509.34;5043132;28;20449;-67
2021/12/05 16:10:33;;;;;;;25.73;18.93;;;;;;;1.89;86.60;100514.91;5054730;28;20432;-67
2021/12/05 16:12:59;;;;;;;25.80;18.87;;;;;;;2.00;86.55;100521.38;5049196;28;20433;-71
2021/12/05 16:15:26;;;;;;;26.40;19.23;;;;;;;1.38;87.88;100530.78;5041291;28;20460;-68
2021/12/05 16:17:54;;;;;;;22.87;16.70;;;;;;;1.43;88.08;100533.53;5042174;28;20432;-67
2021/12/05 16:20:26;;;;;;;26.10;19.67;;;;;;;1.79;86.87;100535.94;5041441;28;20436;-67
2021/12/05 16:23:33;;;;;;;25.90;18.37;;;;;;;1.71;87.41;100539.88;5045377;28;20686;-68
2021/12/05 16:26:22;;;;;;;24.27;19.83;;;;;;;1.96;86.12;100544.31;5057165;28;20432;-68
2021/12/05 16:28:53;;;;;;;25.70;19.80;;;;;;;2.10;86.40;100550.91;5062374;28;20679;-69
2021/12/05 16:31:31;;;;;;;26.93;19.30;;;;;;;2.11;85.29;100552.69;5061639;28;20436;-70
2021/12/05 16:34:16;;;;;;;25.40;18.30;;;;;;;2.14;85.84;100559.63;5060984;28;20442;-70
2021/12/05 16:36:52;;;;;;;25.80;18.57;;;;;;;1.54;87.84;100560.56;5061395;28;20505;-70
2021/12/05 16:39:30;;;;;;;26.90;19.60;;;;;;;1.98;87.36;100563.28;5061866;28;20431;-69
2021/12/05 16:41:57;;;;;;;26.47;19.30;;;;;;;1.52;88.05;100564.75;5055675;28;20472;-71
2021/12/05 16:44:25;;;;;;;27.03;19.17;;;;;;;1.31;87.80;100574.97;5041300;28;20459;-69
2021/12/05 16:46:59;;;;;;;24.70;18.63;;;;;;;1.80;86.78;100577.09;5041419;28;20421;-69
2021/12/05 16:49:28;;;;;;;26.70;20.47;;;;;;;2.09;85.19;100571.44;5041183;28;20432;-69
2021/12/05 16:51:55;;;;;;;25.90;19.53;;;;;;;1.57;86.56;100576.13;5046245;28;20694;-68
2021/12/05 16:54:29;;;;;;;30.60;21.13;;;;;;;1.95;86.73;100569.16;5053196;28;20465;-68